createdAt,value
2022-08-04T00:00:27.632Z,72.55
2022-08-04T00:03:20.791Z,73.16
2022-08-04T00:06:20.783Z,72.89
2022-08-04T00:09:14.999Z,72.54
2022-08-04T00:12:08.252Z,73.16
2022-08-04T00:15:01.020Z,73.08
2022-08-04T00:17:55.604Z,72.88
2022-08-04T00:20:44.477Z,73.26
2022-08-04T00:24:11.820Z,73.25
2022-08-04T00:26:45.083Z,73.50
2022-08-04T00:29:34.409Z,73.38
2022-08-04T00:32:29.907Z,73.42
2022-08-04T00:35:23.175Z,73.29
2022-08-04T00:38:12.330Z,73.44
2022-08-04T00:41:10.231Z,73.85
2022-08-04T00:44:14.364Z,74.10
2022-08-04T00:47:30.342Z,73.95
2022-08-04T00:50:27.983Z,74.39
2022-08-04T00:53:24.661Z,74.48
2022-08-04T00:56:28.108Z,74.07
2022-08-04T00:59:37.416Z,74.84
2022-08-04T01:02:33.586Z,74.91
2022-08-04T01:05:37.495Z,74.98
2022-08-04T01:08:46.887Z,75.45
2022-08-04T01:11:56.442Z,75.58
2022-08-04T01:15:00.154Z,75.60
2022-08-04T01:18:00.378Z,75.69
2022-08-04T01:21:06.328Z,75.72
2022-08-04T01:24:20.742Z,76.13
2022-08-04T01:27:21.343Z,76.44
2022-08-04T01:30:13.136Z,76.22
2022-08-04T01:33:04.818Z,76.64
2022-08-04T01:35:57.256Z,76.63
2022-08-04T01:38:46.190Z,76.61
2022-08-04T01:41:34.691Z,77.17
2022-08-04T01:44:25.796Z,77.46
2022-08-04T01:47:18.288Z,77.55
2022-08-04T01:50:09.285Z,77.41
2022-08-04T01:52:57.804Z,77.48
2022-08-04T01:55:54.296Z,77.51
2022-08-04T01:58:44.108Z,78.07
2022-08-04T02:01:37.915Z,77.68
2022-08-04T02:04:27.828Z,77.75
2022-08-04T02:07:29.162Z,77.67
2022-08-04T02:10:28.317Z,77.42
2022-08-04T02:13:25.245Z,77.39
2022-08-04T02:16:22.882Z,77.61
2022-08-04T02:19:24.538Z,77.92
2022-08-04T02:22:23.126Z,78.54
2022-08-04T02:25:13.131Z,78.34
2022-08-04T02:28:17.299Z,78.55
2022-08-04T02:31:20.169Z,78.50
2022-08-04T02:34:13.337Z,78.18
2022-08-04T02:37:01.775Z,78.27
2022-08-04T02:39:55.143Z,78.42
2022-08-04T02:42:44.490Z,78.27
2022-08-04T02:45:37.582Z,78.46
2022-08-04T02:48:31.008Z,78.39
2022-08-04T02:51:24.754Z,78.94
2022-08-04T02:54:16.047Z,78.84
2022-08-04T02:57:24.600Z,78.76
2022-08-04T03:00:15.271Z,78.85
2022-08-04T03:03:17.248Z,78.97
2022-08-04T03:06:34.949Z,79.19
2022-08-04T03:09:39.488Z,79.29
2022-08-04T03:12:59.134Z,79.26
2022-08-04T03:16:02.676Z,79.16
2022-08-04T03:19:21.090Z,79.18
2022-08-04T03:22:28.942Z,79.06
2022-08-04T03:25:56.549Z,79.29
2022-08-04T03:29:26.069Z,79.52
2022-08-04T03:33:13.292Z,79.76
2022-08-04T03:36:48.403Z,80.11
2022-08-04T03:40:16.048Z,80.16
2022-08-04T03:43:57.887Z,80.17
2022-08-04T03:47:21.107Z,80.24
2022-08-04T03:50:44.691Z,80.32
2022-08-04T03:53:40.825Z,80.27
2022-08-04T03:57:00.986Z,79.98
2022-08-04T04:00:06.705Z,79.62
2022-08-04T04:03:41.647Z,79.51
2022-08-04T04:06:54.729Z,79.43
2022-08-04T04:10:09.373Z,79.16
2022-08-04T04:13:36.064Z,79.37
2022-08-04T04:16:39.534Z,78.71
2022-08-04T04:19:58.633Z,78.56
2022-08-04T04:23:02.327Z,77.74
2022-08-04T04:26:05.072Z,78.16
2022-08-04T04:29:08.071Z,78.20
2022-08-04T04:32:06.313Z,78.04
2022-08-04T04:35:12.284Z,77.85
2022-08-04T04:38:31.969Z,77.81
2022-08-04T04:41:38.155Z,77.55
2022-08-04T04:44:52.425Z,77.34
2022-08-04T04:48:08.428Z,77.45
2022-08-04T04:51:10.124Z,77.19
2022-08-04T04:54:07.644Z,76.91
2022-08-04T04:57:06.586Z,76.91
2022-08-04T04:59:59.637Z,77.08
2022-08-04T05:03:26.271Z,77.69
2022-08-04T05:06:38.700Z,78.53
2022-08-04T05:09:42.961Z,77.82
2022-08-04T05:14:35.309Z,77.97
2022-08-04T05:16:21.553Z,77.96
2022-08-04T05:19:21.737Z,77.75
2022-08-04T05:22:14.725Z,77.24
2022-08-04T05:25:09.942Z,77.16
2022-08-04T05:28:04.417Z,76.78
2022-08-04T05:30:58.877Z,76.52
2022-08-04T05:33:53.187Z,76.58
2022-08-04T05:36:45.339Z,75.88
2022-08-04T05:39:38.385Z,75.21
2022-08-04T05:42:29.207Z,75.16
2022-08-04T05:45:19.784Z,74.22
2022-08-04T05:48:10.429Z,73.61
2022-08-04T05:51:01.189Z,73.46
2022-08-04T05:53:50.941Z,73.69
2022-08-04T05:56:40.047Z,73.72
2022-08-04T05:59:31.514Z,73.17
2022-08-04T06:02:21.653Z,72.61
2022-08-04T06:05:14.763Z,72.49
2022-08-04T06:08:07.799Z,72.12
2022-08-04T06:11:06.095Z,71.29
2022-08-04T06:13:58.007Z,71.01
2022-08-04T06:16:51.344Z,69.92
2022-08-04T06:20:03.138Z,69.30
2022-08-04T06:22:55.045Z,68.78
2022-08-04T06:25:47.870Z,68.07
2022-08-04T06:28:37.268Z,68.09
2022-08-04T06:32:31.378Z,67.05
2022-08-04T06:34:56.315Z,66.75
2022-08-04T06:37:46.597Z,65.95
2022-08-04T06:40:36.174Z,67.00
2022-08-04T06:43:25.157Z,66.71
2022-08-04T06:46:17.559Z,65.63
2022-08-04T06:49:06.614Z,65.44
2022-08-04T06:51:59.414Z,65.16
2022-08-04T06:54:49.071Z,65.08
2022-08-04T06:57:38.488Z,63.93
2022-08-04T07:00:27.648Z,64.11
2022-08-04T07:03:19.394Z,63.93
2022-08-04T07:06:14.294Z,63.86
2022-08-04T07:09:06.414Z,64.64
2022-08-04T07:11:56.708Z,63.72
2022-08-04T07:14:45.564Z,63.69
2022-08-04T07:17:36.255Z,62.60
2022-08-04T07:20:34.326Z,61.67
2022-08-04T07:23:26.367Z,60.89
2022-08-04T07:26:19.228Z,60.50
2022-08-04T07:29:07.874Z,58.98
2022-08-04T07:31:57.955Z,59.00
2022-08-04T07:34:49.930Z,58.21
2022-08-04T07:37:40.104Z,57.46
2022-08-04T07:40:28.752Z,58.18
2022-08-04T07:43:19.242Z,56.10
2022-08-04T07:46:08.077Z,55.71
2022-08-04T07:48:56.602Z,55.80
2022-08-04T07:51:45.406Z,54.87
2022-08-04T07:54:35.061Z,55.02
2022-08-04T07:57:41.398Z,54.10
2022-08-04T08:00:32.554Z,54.67
2022-08-04T08:03:21.644Z,55.10
2022-08-04T08:06:17.497Z,54.53
2022-08-04T08:09:21.426Z,54.17
2022-08-04T08:12:37.747Z,54.35
2022-08-04T08:15:21.009Z,53.54
2022-08-04T08:18:10.890Z,52.10
2022-08-04T08:21:00.021Z,51.23
2022-08-04T08:23:48.681Z,51.36
2022-08-04T08:26:36.983Z,52.16
2022-08-04T08:29:27.037Z,51.67
2022-08-04T08:32:16.541Z,52.16
2022-08-04T08:35:07.803Z,50.49
2022-08-04T08:38:03.950Z,51.04
2022-08-04T08:40:59.974Z,50.86
2022-08-04T08:44:07.689Z,50.51
2022-08-04T08:47:08.727Z,50.84
2022-08-04T08:50:19.428Z,49.94
2022-08-04T08:53:24.424Z,50.38
2022-08-04T08:56:31.157Z,49.91
2022-08-04T08:59:40.653Z,46.98
2022-08-04T09:03:04.733Z,46.64
2022-08-04T09:06:24.075Z,46.61
2022-08-04T09:09:32.310Z,46.98
2022-08-04T09:12:29.185Z,46.84
2022-08-04T09:15:24.280Z,46.74
2022-08-04T09:18:19.783Z,46.73
2022-08-04T09:21:17.805Z,46.22
2022-08-04T09:24:35.347Z,46.25
2022-08-04T09:27:25.843Z,46.82
2022-08-04T09:30:19.395Z,47.27
2022-08-04T09:33:17.436Z,47.04
2022-08-04T09:36:25.589Z,46.39
2022-08-04T09:39:23.299Z,44.81
2022-08-04T09:42:20.035Z,44.25
2022-08-04T09:45:26.690Z,45.91
2022-08-04T09:48:43.995Z,46.29
2022-08-04T09:51:58.841Z,45.13
2022-08-04T09:54:54.177Z,44.99
2022-08-04T09:58:02.913Z,44.96
2022-08-04T10:00:54.993Z,45.44
2022-08-04T10:03:48.736Z,44.13
2022-08-04T10:07:20.501Z,44.22
2022-08-04T10:10:20.355Z,43.58
2022-08-04T10:13:22.437Z,43.48
2022-08-04T10:16:29.363Z,44.00
2022-08-04T10:19:27.525Z,44.25
2022-08-04T10:22:28.820Z,45.87
2022-08-04T10:26:02.561Z,46.07
2022-08-04T10:28:45.694Z,45.97
2022-08-04T10:31:36.682Z,46.02
2022-08-04T10:34:28.971Z,45.54
2022-08-04T10:38:00.249Z,46.63
2022-08-04T10:40:45.575Z,46.50
2022-08-04T10:43:44.156Z,46.95
2022-08-04T10:46:36.372Z,46.57
2022-08-04T10:49:30.347Z,46.14
2022-08-04T10:52:30.346Z,44.96
2022-08-04T10:55:21.150Z,46.14
2022-08-04T10:58:20.631Z,45.87
2022-08-04T11:01:59.633Z,45.96
2022-08-04T11:04:42.647Z,44.72
2022-08-04T11:07:36.313Z,45.60
2022-08-04T11:10:29.824Z,44.97
2022-08-04T11:13:29.566Z,44.57
2022-08-04T11:16:23.730Z,44.54
2022-08-04T11:19:45.219Z,43.44
2022-08-04T11:22:40.498Z,43.06
2022-08-04T11:25:35.650Z,43.35
2022-08-04T11:28:38.559Z,43.46
2022-08-04T11:31:30.483Z,42.62
2022-08-04T11:34:23.267Z,43.28
2022-08-04T11:37:18.592Z,42.15
2022-08-04T11:40:13.955Z,42.68
2022-08-04T11:43:05.797Z,43.36
2022-08-04T11:45:57.964Z,41.58
2022-08-04T11:48:54.176Z,41.81
2022-08-04T11:51:45.717Z,42.45
2022-08-04T11:54:35.948Z,42.38
2022-08-04T11:57:35.661Z,41.42
2022-08-04T12:00:27.908Z,40.72
2022-08-04T12:03:37.579Z,40.33
2022-08-04T12:06:33.666Z,39.64
2022-08-04T12:09:33.392Z,38.83
2022-08-04T12:12:29.616Z,37.41
2022-08-04T12:15:26.688Z,36.75
2022-08-04T12:18:24.690Z,37.08
2022-08-04T12:21:29.322Z,37.07
2022-08-04T12:24:22.656Z,36.61
2022-08-04T12:27:17.012Z,36.69
2022-08-04T12:31:00.061Z,37.22
2022-08-04T12:33:24.481Z,35.08
2022-08-04T12:36:39.260Z,34.52
2022-08-04T12:39:29.204Z,34.05
2022-08-04T12:42:23.630Z,34.27
2022-08-04T12:45:15.466Z,33.42
2022-08-04T12:48:07.483Z,33.13
2022-08-04T12:50:58.478Z,33.02
2022-08-04T12:53:50.936Z,33.34
2022-08-04T12:56:41.955Z,32.86
2022-08-04T12:59:30.508Z,33.43
2022-08-04T13:02:27.330Z,32.40
2022-08-04T13:05:17.417Z,32.04
2022-08-04T13:08:07.605Z,33.11
2022-08-04T13:11:00.014Z,33.13
2022-08-04T13:14:05.368Z,32.53
2022-08-04T13:17:01.969Z,32.66
2022-08-04T13:19:53.396Z,32.82
2022-08-04T13:22:46.368Z,32.73
2022-08-04T13:26:44.666Z,33.25
2022-08-04T13:28:50.846Z,32.57
2022-08-04T13:31:45.157Z,33.05
2022-08-04T13:34:49.514Z,32.91
2022-08-04T13:37:44.117Z,32.25
2022-08-04T13:40:33.470Z,32.81
2022-08-04T13:44:15.333Z,32.27
2022-08-04T13:46:39.129Z,32.28
2022-08-04T13:49:42.889Z,31.53
2022-08-04T13:52:36.100Z,31.65
2022-08-04T13:55:30.137Z,31.63
2022-08-04T13:58:24.217Z,31.74
2022-08-04T14:01:17.610Z,31.64
2022-08-04T14:04:13.732Z,31.80
2022-08-04T14:07:18.113Z,31.16
2022-08-04T14:10:14.341Z,31.14
2022-08-04T14:13:06.084Z,31.15
2022-08-04T14:16:03.721Z,31.44
2022-08-04T14:19:00.653Z,31.69
2022-08-04T14:21:49.877Z,31.93
2022-08-04T14:24:38.417Z,32.03
2022-08-04T14:27:29.260Z,32.05
2022-08-04T14:30:27.723Z,32.53
2022-08-04T14:34:01.662Z,32.40
2022-08-04T14:36:25.424Z,32.52
2022-08-04T14:39:13.918Z,32.76
2022-08-04T14:42:02.349Z,32.59
2022-08-04T14:44:55.594Z,32.94
2022-08-04T14:47:52.667Z,32.48
2022-08-04T14:50:45.042Z,31.87
2022-08-04T14:53:33.732Z,33.46
2022-08-04T14:56:44.917Z,32.82
2022-08-04T14:59:59.225Z,33.00
2022-08-04T15:02:53.308Z,32.78
2022-08-04T15:05:59.808Z,32.63
2022-08-04T15:08:54.729Z,32.46
2022-08-04T15:11:43.743Z,31.78
2022-08-04T15:14:37.482Z,32.40
2022-08-04T15:17:29.989Z,32.13
2022-08-04T15:20:20.442Z,32.44
2022-08-04T15:23:10.910Z,32.62
2022-08-04T15:26:03.045Z,32.44
2022-08-04T15:28:55.919Z,32.45
2022-08-04T15:32:05.739Z,31.81
2022-08-04T15:35:02.567Z,31.79
2022-08-04T15:38:01.222Z,32.18
2022-08-04T15:40:53.871Z,31.53
2022-08-04T15:43:55.319Z,32.65
2022-08-04T15:47:12.826Z,32.26
2022-08-04T15:50:07.391Z,32.09
2022-08-04T15:53:10.550Z,32.39
2022-08-04T15:56:01.721Z,32.94
2022-08-04T15:58:53.204Z,33.04
2022-08-04T16:01:41.814Z,32.64
2022-08-04T16:04:50.235Z,32.98
2022-08-04T16:08:00.237Z,32.61
2022-08-04T16:10:51.123Z,33.24
2022-08-04T16:13:47.683Z,32.61
2022-08-04T16:16:49.267Z,32.75
2022-08-04T16:19:55.779Z,33.05
2022-08-04T16:22:51.874Z,33.01
2022-08-04T16:25:45.081Z,32.69
2022-08-04T16:28:41.878Z,32.08
2022-08-04T16:31:34.301Z,32.10
2022-08-04T16:34:48.300Z,32.40
2022-08-04T16:37:34.511Z,32.68
2022-08-04T16:40:37.080Z,32.80
2022-08-04T16:43:30.477Z,33.07
2022-08-04T16:46:41.743Z,32.95
2022-08-04T16:50:03.206Z,33.32
2022-08-04T16:52:55.748Z,33.60
2022-08-04T16:55:47.621Z,34.09
2022-08-04T16:58:37.241Z,35.03
2022-08-04T17:01:47.350Z,34.61
2022-08-04T17:04:36.411Z,34.66
2022-08-04T17:07:24.908Z,35.64
2022-08-04T17:10:13.409Z,36.19
2022-08-04T17:13:20.805Z,36.48
2022-08-04T17:16:18.436Z,37.06
2022-08-04T17:19:25.251Z,37.36
2022-08-04T17:22:15.127Z,38.22
2022-08-04T17:25:04.565Z,38.11
2022-08-04T17:28:09.680Z,38.32
2022-08-04T17:31:11.913Z,39.09
2022-08-04T17:34:01.784Z,38.95
2022-08-04T17:36:52.404Z,39.23
2022-08-04T17:39:40.986Z,40.19
2022-08-04T17:42:30.639Z,39.94
2022-08-04T17:48:27.894Z,40.82
2022-08-04T17:51:17.964Z,41.13
2022-08-04T17:54:08.571Z,41.26
2022-08-04T17:56:58.234Z,40.93
2022-08-04T17:59:56.931Z,41.41
2022-08-04T18:02:54.107Z,41.85
2022-08-04T18:06:03.795Z,42.00
2022-08-04T18:08:55.566Z,42.32
2022-08-04T18:11:55.210Z,42.91
2022-08-04T18:14:45.685Z,43.18
2022-08-04T18:18:21.301Z,43.46
2022-08-04T18:20:50.162Z,44.35
2022-08-04T18:23:43.435Z,44.10
2022-08-04T18:26:39.930Z,44.12
2022-08-04T18:29:30.999Z,44.09
2022-08-04T18:32:20.776Z,44.68
2022-08-04T18:35:09.774Z,45.31
2022-08-04T18:38:11.507Z,45.33
2022-08-04T18:41:12.893Z,45.53
2022-08-04T18:44:01.789Z,45.74
2022-08-04T18:46:55.921Z,46.03
2022-08-04T18:50:58.801Z,46.67
2022-08-04T18:52:53.155Z,47.25
2022-08-04T18:55:56.552Z,47.03
2022-08-04T18:58:46.679Z,47.36
2022-08-04T19:02:13.728Z,47.50
2022-08-04T19:04:49.350Z,48.14
2022-08-04T19:08:02.184Z,48.73
2022-08-04T19:10:46.503Z,48.88
2022-08-04T19:13:42.808Z,48.79
2022-08-04T19:16:46.017Z,49.18
2022-08-04T19:19:47.631Z,49.11
2022-08-04T19:24:30.194Z,49.50
2022-08-04T19:25:59.112Z,49.56
2022-08-04T19:28:50.943Z,49.94
2022-08-04T19:31:40.128Z,50.25
2022-08-04T19:34:34.758Z,50.53
2022-08-04T19:37:56.745Z,50.89
2022-08-04T19:40:34.353Z,51.18
2022-08-04T19:43:23.238Z,51.51
2022-08-04T19:46:12.212Z,51.20
2022-08-04T19:49:01.341Z,51.38
2022-08-04T19:51:51.786Z,51.68
2022-08-04T19:54:43.144Z,52.50
2022-08-04T19:57:46.147Z,52.34
2022-08-04T20:00:34.811Z,52.28
2022-08-04T20:04:10.266Z,52.27
2022-08-04T20:06:34.007Z,52.89
2022-08-04T20:09:25.820Z,53.20
2022-08-04T20:12:15.274Z,53.00
2022-08-04T20:15:06.296Z,53.05
2022-08-04T20:18:08.111Z,53.25
2022-08-04T20:21:11.324Z,53.05
2022-08-04T20:24:38.832Z,53.33
2022-08-04T20:27:18.592Z,53.24
2022-08-04T20:30:10.905Z,53.50
2022-08-04T20:33:06.873Z,53.77
2022-08-04T20:39:04.063Z,53.51
2022-08-04T20:41:58.201Z,54.26
2022-08-04T20:44:47.286Z,54.34
2022-08-04T20:47:37.252Z,54.15
2022-08-04T20:50:30.102Z,53.76
2022-08-04T20:53:18.982Z,53.87
2022-08-04T20:56:07.653Z,54.09
2022-08-04T20:58:56.067Z,54.74
2022-08-04T21:01:45.474Z,54.54
2022-08-04T21:04:48.774Z,54.73
2022-08-04T21:07:41.689Z,54.37
2022-08-04T21:10:32.444Z,54.80
2022-08-04T21:13:21.095Z,54.89
2022-08-04T21:16:10.683Z,54.76
2022-08-04T21:19:22.598Z,55.12
2022-08-04T21:22:14.856Z,55.32
2022-08-04T21:25:18.564Z,55.58
2022-08-04T21:28:09.376Z,55.30
2022-08-04T21:30:59.587Z,55.31
2022-08-04T21:33:52.257Z,55.29
2022-08-04T21:36:43.303Z,55.98
2022-08-04T21:39:33.262Z,55.97
2022-08-04T21:42:42.495Z,56.06
2022-08-04T21:45:38.438Z,56.27
2022-08-04T21:48:27.952Z,56.51
2022-08-04T21:51:56.998Z,56.57
2022-08-04T21:54:26.508Z,56.57
2022-08-04T21:57:16.252Z,57.04
2022-08-04T22:00:06.963Z,56.82
2022-08-04T22:03:11.292Z,57.30
2022-08-04T22:06:17.490Z,57.43
2022-08-04T22:09:09.491Z,57.71
2022-08-04T22:12:03.461Z,57.99
2022-08-04T22:14:57.519Z,57.92
2022-08-04T22:17:48.230Z,58.17
2022-08-04T22:20:36.560Z,58.08
2022-08-04T22:23:25.451Z,58.58
2022-08-04T22:26:15.897Z,58.63
2022-08-04T22:29:14.236Z,58.86
2022-08-04T22:32:04.611Z,58.71
2022-08-04T22:35:03.026Z,59.19
2022-08-04T22:38:21.270Z,59.09
2022-08-04T22:41:20.208Z,59.19
2022-08-04T22:44:15.099Z,59.33
2022-08-04T22:47:05.972Z,59.49
2022-08-04T22:50:13.491Z,59.86
2022-08-04T22:53:03.113Z,60.32
2022-08-04T22:55:57.415Z,60.27
2022-08-04T22:58:56.123Z,60.45
2022-08-04T23:01:59.014Z,60.41
2022-08-04T23:04:54.055Z,60.82
2022-08-04T23:07:49.260Z,60.41
2022-08-04T23:10:43.866Z,60.83
2022-08-04T23:13:33.067Z,60.45
2022-08-04T23:16:21.386Z,60.94
2022-08-04T23:19:15.349Z,60.81
2022-08-04T23:22:05.759Z,61.03
2022-08-04T23:24:55.553Z,61.03
2022-08-04T23:27:50.564Z,61.67
2022-08-04T23:30:39.661Z,61.61
2022-08-04T23:33:50.566Z,62.05
2022-08-04T23:36:40.616Z,61.96
2022-08-04T23:40:03.871Z,62.14
2022-08-04T23:42:39.021Z,61.84
2022-08-04T23:46:04.526Z,62.25
2022-08-04T23:48:41.559Z,62.71
2022-08-04T23:51:30.140Z,62.96
2022-08-04T23:54:25.719Z,62.91
2022-08-04T23:57:17.278Z,63.08
